Time;durP1;ratioP1;P1;durP2;ratioP2;P2;SDS_P1;SDS_P2;PMS_P1;PMS_P2;Temp;Humidity;BMP_temperature;BMP_pressure;BME280_temperature;BME280_humidity;BME280_pressure;Samples;Min_cycle;Max_cycle;Signal;HPM_P1;HPM_P2
2021/05/01 00:01:00;;;;;;;11.88;7.37;;;;;;;15.43;61.70;99296.75;4351003;32;33819;-84
2021/05/01 00:03:27;;;;;;;11.50;6.60;;;;;;;15.60;61.23;99296.38;4353629;32;33368;-84
2021/05/01 00:05:59;;;;;;;12.27;7.43;;;;;;;15.86;60.37;99299.84;4343896;33;31784;-83
2021/05/01 00:08:29;;;;;;;15.50;8.82;;;;;;;15.86;60.26;99299.00;4349820;32;33539;-83
2021/05/01 00:11:00;;;;;;;12.55;6.72;;;;;;;15.85;60.38;99291.97;4356651;32;34926;-82
2021/05/01 00:13:29;;;;;;;9.15;7.22;;;;;;;15.93;60.17;99294.06;4344205;32;33689;-82
2021/05/01 00:15:57;;;;;;;10.63;6.75;;;;;;;15.93;59.96;99286.94;4355545;32;32898;-85
2021/05/01 00:18:24;;;;;;;13.82;8.07;;;;;;;16.09;59.35;99279.50;4331940;32;34263;-84
2021/05/01 00:20:52;;;;;;;11.65;7.07;;;;;;;16.07;59.45;99286.75;4357271;32;34770;-84
2021/05/01 00:23:19;;;;;;;9.27;7.32;;;;;;;16.16;59.16;99284.37;4353447;32;33643;-84
2021/05/01 00:25:47;;;;;;;10.00;6.55;;;;;;;16.15;59.31;99267.53;4355372;32;33058;-84
2021/05/01 00:28:14;;;;;;;9.30;7.03;;;;;;;16.04;59.35;99275.47;4353939;32;33311;-84
2021/05/01 00:30:42;;;;;;;9.27;7.00;;;;;;;15.81;59.92;99280.72;4348378;32;35488;-84
2021/05/01 00:33:09;;;;;;;11.43;7.28;;;;;;;15.94;59.53;99277.97;4349400;32;35582;-84
2021/05/01 00:35:36;;;;;;;8.82;7.10;;;;;;;15.92;59.63;99279.91;4336536;33;32787;-84
2021/05/01 00:38:04;;;;;;;10.48;7.70;;;;;;;15.62;60.45;99278.50;4358750;32;33784;-84
2021/05/01 00:40:31;;;;;;;9.95;7.35;;;;;;;15.48;60.89;99283.97;4350284;32;34011;-84
2021/05/01 00:42:58;;;;;;;9.88;7.07;;;;;;;15.70;60.13;99282.44;4346243;32;33203;-84
2021/05/01 00:45:25;;;;;;;11.90;7.50;;;;;;;15.64;60.45;99288.22;4346843;33;33624;-84
2021/05/01 00:47:52;;;;;;;11.73;7.75;;;;;;;15.80;59.76;99283.47;4348829;32;32674;-84
2021/05/01 00:50:20;;;;;;;11.65;5.87;;;;;;;15.55;60.65;99287.03;4348989;32;33575;-84
2021/05/01 00:52:47;;;;;;;9.43;7.30;;;;;;;15.61;60.47;99276.78;4324678;32;35383;-85
2021/05/01 00:55:31;;;;;;;8.95;6.30;;;;;;;15.60;60.43;99272.44;4356003;32;33208;-85
2021/05/01 00:57:59;;;;;;;7.85;5.82;;;;;;;15.53;60.49;99271.19;4356378;32;33682;-84
2021/05/01 01:03:12;;;;;;;9.65;6.40;;;;;;;15.54;60.34;99272.88;4338452;33;34498;-84
2021/05/01 01:05:39;;;;;;;6.68;5.90;;;;;;;15.66;59.99;99270.31;4323008;33;33139;-85
2021/05/01 01:12:06;;;;;;;8.65;6.07;;;;;;;15.52;60.35;99279.25;4337321;33;34531;-84
2021/05/01 01:14:33;;;;;;;10.63;6.93;;;;;;;15.33;60.86;99287.72;4322541;33;33679;-84
2021/05/01 01:17:00;;;;;;;13.57;6.60;;;;;;;15.23;61.00;99289.34;4346120;33;33239;-84
2021/05/01 01:19:28;;;;;;;10.02;6.97;;;;;;;15.24;61.16;99299.00;4335812;33;33775;-84
2021/05/01 01:21:55;;;;;;;9.02;7.05;;;;;;;15.20;61.37;99294.88;4342031;33;34306;-84
2021/05/01 01:24:25;;;;;;;11.40;6.55;;;;;;;15.13;61.94;99299.78;4337951;33;34440;-83
2021/05/01 01:26:52;;;;;;;8.43;5.87;;;;;;;15.16;61.91;99299.56;4329565;33;32679;-84
2021/05/01 01:29:19;;;;;;;10.35;6.95;;;;;;;15.32;61.57;99299.31;4338354;33;33682;-84
2021/05/01 01:31:46;;;;;;;9.45;6.82;;;;;;;15.29;61.85;99286.25;4338651;33;34256;-85
2021/05/01 01:34:14;;;;;;;12.50;6.35;;;;;;;15.32;61.95;99283.34;4321152;33;34121;-85
2021/05/01 01:36:46;;;;;;;8.95;7.00;;;;;;;14.85;64.10;99279.56;4334794;33;34127;-83
2021/05/01 01:39:13;;;;;;;9.10;6.32;;;;;;;14.75;64.64;99281.19;4336539;33;34334;-84
2021/05/01 01:41:41;;;;;;;11.40;6.40;;;;;;;15.21;63.11;99277.97;4336273;33;33907;-83
2021/05/01 01:44:08;;;;;;;8.20;5.65;;;;;;;15.41;62.42;99282.69;4326830;33;32832;-83
2021/05/01 01:46:35;;;;;;;16.00;6.68;;;;;;;15.73;61.48;99276.91;4338255;33;34978;-83
2021/05/01 01:49:03;;;;;;;9.30;6.50;;;;;;;15.51;62.35;99277.56;4329063;33;33768;-83
2021/05/01 01:51:30;;;;;;;10.63;6.12;;;;;;;15.52;62.32;99284.59;4327297;33;35367;-82
2021/05/01 01:53:57;;;;;;;8.55;6.82;;;;;;;15.84;61.43;99276.94;4339283;33;33593;-82
2021/05/01 01:56:26;;;;;;;11.30;6.87;;;;;;;15.58;62.18;99282.34;4339036;33;31833;-82
2021/05/01 01:58:54;;;;;;;8.90;6.65;;;;;;;15.51;62.57;99277.56;4343612;33;33499;-82
2021/05/01 02:01:23;;;;;;;11.60;7.90;;;;;;;15.15;63.68;99286.38;4340936;32;34746;-82
2021/05/01 02:04:06;;;;;;;10.20;7.47;;;;;;;15.19;63.41;99287.84;4347452;32;33718;-83
2021/05/01 02:06:34;;;;;;;10.93;7.12;;;;;;;15.16;63.52;99282.75;4357633;32;33587;-82
2021/05/01 02:09:06;;;;;;;9.65;6.78;;;;;;;15.30;62.95;99288.81;4356466;32;33622;-82
2021/05/01 02:11:34;;;;;;;9.85;7.20;;;;;;;15.31;62.96;99273.69;4339149;32;33497;-82
2021/05/01 02:14:03;;;;;;;9.20;6.37;;;;;;;15.44;62.51;99276.31;4357248;32;33154;-82
2021/05/01 02:16:32;;;;;;;11.10;6.43;;;;;;;15.76;61.26;99274.88;4357187;32;33376;-83
2021/05/01 02:19:04;;;;;;;11.95;6.78;;;;;;;15.89;60.92;99272.13;4357155;32;32296;-82
2021/05/01 02:21:32;;;;;;;8.63;6.72;;;;;;;15.78;61.14;99269.44;4353593;32;33846;-82
2021/05/01 02:24:00;;;;;;;10.10;7.45;;;;;;;15.47;62.21;99276.94;4357194;32;33736;-82
2021/05/01 02:26:27;;;;;;;10.05;7.60;;;;;;;15.35;62.71;99281.34;4352550;32;34057;-82
2021/05/01 02:28:55;;;;;;;11.02;6.35;;;;;;;15.27;63.15;99282.84;4338070;33;34240;-82
2021/05/01 02:31:22;;;;;;;10.52;7.85;;;;;;;15.70;61.85;99279.78;4343458;32;33490;-83
2021/05/01 02:33:49;;;;;;;10.85;6.72;;;;;;;15.73;61.52;99291.06;4356468;32;33646;-82
2021/05/01 02:36:17;;;;;;;12.65;7.30;;;;;;;15.48;62.38;99296.44;4357244;32;33166;-81
2021/05/01 02:38:44;;;;;;;12.10;6.93;;;;;;;15.32;63.06;99283.34;4352964;32;33621;-82
2021/05/01 02:41:11;;;;;;;11.57;7.00;;;;;;;15.18;63.63;99286.16;4342085;32;34408;-81
2021/05/01 02:43:39;;;;;;;11.10;6.55;;;;;;;15.20;63.48;99278.94;4357558;32;34797;-82
2021/05/01 02:46:06;;;;;;;10.18;7.12;;;;;;;15.23;63.37;99281.34;4353719;32;32818;-82
2021/05/01 02:48:34;;;;;;;14.20;7.07;;;;;;;15.16;63.66;99272.97;4356159;32;33423;-83
2021/05/01 02:51:01;;;;;;;11.23;7.03;;;;;;;15.09;63.81;99263.72;4349681;32;33930;-84
2021/05/01 02:53:28;;;;;;;12.60;8.43;;;;;;;15.05;63.81;99251.63;4356237;32;33517;-84
2021/05/01 02:55:56;;;;;;;12.05;6.95;;;;;;;14.96;64.30;99255.78;4354463;32;32830;-81
2021/05/01 02:58:23;;;;;;;10.20;7.40;;;;;;;15.24;63.24;99249.34;4352136;32;33662;-81
2021/05/01 03:00:53;;;;;;;11.93;6.97;;;;;;;15.10;63.84;99237.03;4341969;32;33705;-82
2021/05/01 03:03:20;;;;;;;9.30;7.87;;;;;;;15.30;63.21;99253.37;4351530;32;33186;-82
2021/05/01 03:05:47;;;;;;;8.13;6.20;;;;;;;15.21;63.50;99260.19;4354367;32;32954;-82
2021/05/01 03:08:15;;;;;;;8.30;6.30;;;;;;;15.51;62.58;99251.81;4352030;32;34820;-81
2021/05/01 03:10:42;;;;;;;9.95;7.25;;;;;;;15.43;62.78;99251.53;4349236;32;32717;-82
2021/05/01 03:13:09;;;;;;;9.15;6.50;;;;;;;15.53;62.69;99255.22;4350226;32;33651;-81
2021/05/01 03:15:36;;;;;;;13.00;7.57;;;;;;;15.65;62.22;99261.47;4341247;32;34256;-82
2021/05/01 03:18:04;;;;;;;9.52;7.00;;;;;;;15.37;63.19;99260.78;4347015;33;33994;-82
2021/05/01 03:20:32;;;;;;;12.95;6.97;;;;;;;15.35;63.37;99259.22;4354149;32;33541;-82
2021/05/01 03:23:07;;;;;;;11.68;6.93;;;;;;;15.65;62.45;99258.81;4343526;32;32716;-82
2021/05/01 03:25:34;;;;;;;11.85;6.82;;;;;;;15.54;62.72;99256.91;4353231;32;33833;-82
2021/05/01 03:28:01;;;;;;;9.02;6.90;;;;;;;15.67;62.53;99261.41;4337186;33;33650;-82
2021/05/01 03:30:30;;;;;;;9.32;6.80;;;;;;;15.91;61.52;99253.41;4351918;32;33858;-83
2021/05/01 03:32:57;;;;;;;10.13;6.60;;;;;;;15.42;63.34;99259.59;4354369;32;35395;-83
2021/05/01 03:35:25;;;;;;;12.65;7.35;;;;;;;15.41;63.55;99257.91;4347744;32;34111;-84
2021/05/01 03:37:57;;;;;;;10.68;7.35;;;;;;;15.17;64.58;99258.72;4357852;32;34715;-82
2021/05/01 03:40:24;;;;;;;13.25;6.50;;;;;;;15.27;64.23;99250.94;4354441;32;34445;-83
2021/05/01 03:42:51;;;;;;;12.68;7.20;;;;;;;15.39;63.82;99252.72;4351477;32;34223;-82
2021/05/01 03:45:18;;;;;;;8.30;7.00;;;;;;;15.67;62.76;99245.41;4340614;32;35189;-81
2021/05/01 03:47:46;;;;;;;10.15;6.57;;;;;;;15.70;62.39;99247.84;4357691;32;33622;-82
2021/05/01 03:50:13;;;;;;;10.27;7.03;;;;;;;15.42;63.40;99267.59;4341177;32;35505;-81
2021/05/01 03:52:41;;;;;;;10.15;6.72;;;;;;;15.42;63.34;99268.44;4343031;32;33831;-83
2021/05/01 03:55:09;;;;;;;11.73;7.35;;;;;;;15.48;63.12;99278.66;4351503;32;34108;-83
2021/05/01 03:57:50;;;;;;;10.60;7.22;;;;;;;15.45;63.26;99262.91;4356451;32;33432;-82
2021/05/01 04:00:19;;;;;;;11.75;7.32;;;;;;;15.58;62.78;99263.72;4358172;32;32793;-83
2021/05/01 04:02:47;;;;;;;10.73;7.60;;;;;;;15.13;64.78;99267.00;4354494;32;32610;-83
2021/05/01 04:05:20;;;;;;;9.80;7.70;;;;;;;15.32;64.04;99273.56;4357857;32;33433;-83
2021/05/01 04:07:48;;;;;;;10.80;7.85;;;;;;;15.46;63.54;99280.56;4354879;32;33510;-83
2021/05/01 04:10:15;;;;;;;10.20;7.30;;;;;;;15.66;62.70;99286.28;4336776;33;34190;-82
2021/05/01 04:12:42;;;;;;;11.23;6.95;;;;;;;15.51;63.40;99288.22;4349241;32;32255;-82
2021/05/01 04:15:10;;;;;;;12.57;7.40;;;;;;;15.51;63.77;99293.53;4341828;32;33382;-82
2021/05/01 04:17:38;;;;;;;14.15;7.32;;;;;;;15.94;62.16;99288.62;4334442;32;32580;-82
2021/05/01 04:20:06;;;;;;;9.10;6.70;;;;;;;16.03;61.99;99282.63;4353745;32;32520;-82
2021/05/01 04:22:34;;;;;;;10.35;7.20;;;;;;;15.79;62.95;99287.09;4353876;32;34194;-82
2021/05/01 04:25:02;;;;;;;9.38;7.10;;;;;;;15.60;64.09;99285.72;4324970;32;31839;-82
2021/05/01 04:27:30;;;;;;;11.25;7.35;;;;;;;15.41;65.03;99288.03;4339912;32;34012;-82
2021/05/01 04:29:59;;;;;;;13.75;7.20;;;;;;;15.68;64.17;99292.34;4340623;32;34374;-82
2021/05/01 04:32:26;;;;;;;18.73;7.62;;;;;;;15.87;63.38;99290.06;4347218;32;35808;-82
2021/05/01 04:34:53;;;;;;;10.63;7.30;;;;;;;15.93;63.30;99284.25;4347516;32;34037;-82
2021/05/01 04:37:21;;;;;;;10.27;7.12;;;;;;;16.16;62.67;99292.37;4335304;32;34737;-83
2021/05/01 04:39:48;;;;;;;8.43;6.80;;;;;;;16.39;61.69;99287.00;4349703;32;33669;-82
2021/05/01 04:42:15;;;;;;;13.00;7.70;;;;;;;16.41;61.43;99288.69;4354888;32;33504;-82
2021/05/01 04:44:43;;;;;;;14.48;7.93;;;;;;;16.34;61.82;99288.31;4353290;32;32478;-82
2021/05/01 04:47:10;;;;;;;10.43;7.00;;;;;;;16.41;61.71;99292.22;4353567;32;33960;-82
2021/05/01 04:49:40;;;;;;;9.43;6.90;;;;;;;16.59;61.28;99288.12;4342752;32;34747;-82
2021/05/01 04:52:07;;;;;;;9.80;7.47;;;;;;;16.69;60.75;99298.09;4353984;32;34305;-82
2021/05/01 04:54:35;;;;;;;10.52;6.82;;;;;;;16.73;60.92;99307.59;4339476;32;34893;-82
2021/05/01 04:57:02;;;;;;;8.18;6.57;;;;;;;16.49;61.92;99303.12;4338150;32;33630;-82
2021/05/01 04:59:31;;;;;;;12.60;7.05;;;;;;;16.92;60.49;99297.22;4352127;32;34423;-82
2021/05/01 05:01:58;;;;;;;9.68;6.93;;;;;;;16.70;60.90;99313.13;4350233;32;33211;-82
2021/05/01 05:04:25;;;;;;;15.25;7.50;;;;;;;16.90;60.13;99301.78;4346319;32;34059;-83
2021/05/01 05:06:53;;;;;;;11.35;7.05;;;;;;;16.64;61.21;99306.44;4339582;32;34723;-83
2021/05/01 05:09:20;;;;;;;10.80;6.32;;;;;;;16.85;60.31;99309.31;4354705;32;34326;-83
2021/05/01 05:11:48;;;;;;;10.52;7.68;;;;;;;16.84;60.77;99316.44;4356895;32;34357;-83
2021/05/01 05:14:15;;;;;;;11.38;7.65;;;;;;;16.76;61.65;99310.88;4339402;33;33447;-83
2021/05/01 05:16:42;;;;;;;10.35;6.57;;;;;;;16.87;61.65;99318.03;4337904;32;34423;-83
2021/05/01 05:19:09;;;;;;;11.80;7.40;;;;;;;16.96;61.44;99328.00;4344871;32;34665;-84
2021/05/01 05:21:37;;;;;;;13.80;7.37;;;;;;;17.34;59.89;99316.16;4350416;32;34350;-83
2021/05/01 05:24:04;;;;;;;7.43;6.20;;;;;;;17.14;60.79;99326.56;4341683;32;33785;-83
2021/05/01 05:26:32;;;;;;;12.63;7.40;;;;;;;17.50;59.86;99321.94;4359293;32;35238;-83
2021/05/01 05:28:59;;;;;;;10.73;7.25;;;;;;;17.67;58.36;99320.63;4349981;32;34576;-82
2021/05/01 05:31:26;;;;;;;10.15;7.28;;;;;;;17.79;58.89;99321.47;4352784;32;33423;-83
2021/05/01 05:33:54;;;;;;;10.52;7.03;;;;;;;17.83;58.04;99317.56;4353049;32;33300;-82
2021/05/01 05:36:21;;;;;;;9.55;7.62;;;;;;;17.50;58.93;99315.75;4353212;32;33489;-83
2021/05/01 05:38:48;;;;;;;10.10;6.75;;;;;;;17.72;58.19;99312.22;4335693;33;35061;-82
2021/05/01 05:41:16;;;;;;;14.27;6.32;;;;;;;17.93;57.71;99313.16;4342002;32;35705;-82
2021/05/01 05:43:43;;;;;;;9.40;6.40;;;;;;;17.57;59.77;99317.00;4342659;32;32804;-84
2021/05/01 05:46:14;;;;;;;11.73;6.57;;;;;;;17.57;60.64;99323.16;4333754;33;34716;-85
2021/05/01 05:48:42;;;;;;;10.52;6.62;;;;;;;17.66;59.92;99322.44;4344490;33;35102;-85
2021/05/01 05:51:10;;;;;;;9.55;7.93;;;;;;;17.79;59.77;99327.66;4339219;32;33269;-85
2021/05/01 05:53:38;;;;;;;9.52;7.20;;;;;;;17.57;60.70;99325.00;4337589;32;36902;-85
2021/05/01 05:56:07;;;;;;;12.68;7.45;;;;;;;17.78;59.87;99336.63;4323454;32;35073;-85
2021/05/01 05:58:36;;;;;;;13.02;7.22;;;;;;;18.12;58.95;99316.03;4340932;32;34076;-85
2021/05/01 06:01:03;;;;;;;12.43;7.72;;;;;;;18.64;57.55;99324.19;4331579;33;33949;-86
2021/05/01 06:03:31;;;;;;;9.18;7.05;;;;;;;18.31;59.18;99334.06;4341522;32;33149;-85
2021/05/01 06:06:03;;;;;;;7.40;6.70;;;;;;;18.64;58.57;99335.72;4337857;32;34977;-85
2021/05/01 06:08:32;;;;;;;8.10;6.35;;;;;;;18.61;59.00;99341.34;4348898;32;35679;-85
2021/05/01 06:11:01;;;;;;;10.45;6.07;;;;;;;19.00;56.52;99335.44;4342580;32;34423;-85
2021/05/01 06:13:31;;;;;;;10.15;4.80;;;;;;;18.91;56.89;99332.56;4349777;32;34084;-85
2021/05/01 06:16:01;;;;;;;8.02;5.05;;;;;;;18.70;57.63;99322.84;4341379;32;35503;-85
2021/05/01 06:18:34;;;;;;;7.45;5.10;;;;;;;19.03;57.00;99314.59;4327697;32;34108;-85
2021/05/01 06:21:02;;;;;;;10.40;4.90;;;;;;;19.08;57.31;99309.69;4334150;32;34825;-85
2021/05/01 06:23:29;;;;;;;6.60;4.80;;;;;;;19.29;55.88;99315.03;4349402;32;33857;-85
2021/05/01 06:25:57;;;;;;;8.15;4.50;;;;;;;19.29;56.31;99316.88;4348917;32;33951;-85
2021/05/01 06:28:26;;;;;;;7.80;4.25;;;;;;;19.17;56.53;99306.22;4349547;32;33983;-85
2021/05/01 06:30:54;;;;;;;7.05;4.45;;;;;;;19.21;56.53;99328.22;4336524;33;34425;-85
2021/05/01 06:33:23;;;;;;;4.68;3.35;;;;;;;19.51;55.16;99330.03;4329032;32;33597;-85
2021/05/01 06:35:50;;;;;;;6.35;3.62;;;;;;;19.80;52.13;99318.62;4341359;32;34835;-85
2021/05/01 06:38:17;;;;;;;7.35;3.37;;;;;;;19.87;52.30;99322.44;4352459;32;33679;-85
2021/05/01 06:40:48;;;;;;;4.55;2.80;;;;;;;19.95;51.54;99325.28;4329007;32;33731;-91
2021/05/01 06:43:51;;;;;;;6.68;3.05;;;;;;;19.94;51.44;99328.94;4350477;32;33125;-89
2021/05/01 06:46:23;;;;;;;5.28;3.33;;;;;;;20.00;52.02;99338.25;4330740;32;34859;-87
2021/05/01 06:48:54;;;;;;;4.87;3.25;;;;;;;19.94;49.35;99343.19;4325745;32;34611;-87
2021/05/01 06:51:21;;;;;;;5.78;3.50;;;;;;;20.00;50.40;99341.78;4350940;32;32426;-87
2021/05/01 06:53:48;;;;;;;6.43;3.90;;;;;;;19.98;49.67;99338.37;4325151;32;34268;-87
2021/05/01 06:56:16;;;;;;;5.87;3.62;;;;;;;20.09;49.70;99345.47;4339455;32;34739;-87
2021/05/01 06:58:45;;;;;;;7.12;4.70;;;;;;;20.06;50.23;99330.50;4338074;32;35832;-87
2021/05/01 07:01:13;;;;;;;4.85;3.47;;;;;;;20.10;49.98;99320.38;4336602;32;35576;-87
2021/05/01 07:03:44;;;;;;;4.60;4.18;;;;;;;20.02;49.72;99322.87;4323233;32;33024;-87
2021/05/01 07:06:16;;;;;;;4.85;4.22;;;;;;;20.28;48.92;99313.31;4325728;32;34475;-87
2021/05/01 07:08:44;;;;;;;;;;;;;;;20.25;49.70;99321.63;4335439;32;34795;-87
2021/05/01 07:11:12;;;;;;;7.57;4.68;;;;;;;20.32;48.64;99298.66;4339341;32;33444;-86
2021/05/01 07:13:49;;;;;;;10.38;5.37;;;;;;;20.52;48.86;99304.88;4348722;32;33545;-87
2021/05/01 07:16:17;;;;;;;5.87;5.28;;;;;;;20.76;48.37;99300.91;4337998;32;33817;-87
2021/05/01 07:18:45;;;;;;;7.70;6.10;;;;;;;20.79;47.91;99300.59;4346583;32;34398;-86
2021/05/01 07:21:13;;;;;;;8.77;5.45;;;;;;;20.95;46.86;99300.87;4340537;32;34541;-90
2021/05/01 07:23:43;;;;;;;7.80;5.20;;;;;;;21.22;46.93;99311.66;4336988;33;33060;-86
2021/05/01 07:26:15;;;;;;;6.15;5.40;;;;;;;21.18;47.14;99312.94;4334173;32;34041;-85
2021/05/01 07:28:44;;;;;;;;;;;;;;;20.54;47.73;99319.00;4335404;32;33581;-86
2021/05/01 07:31:16;;;;;;;11.60;5.40;;;;;;;20.82;47.16;99324.47;4333797;32;32904;-86
2021/05/01 07:33:48;;;;;;;6.95;5.10;;;;;;;21.27;46.75;99327.34;4343896;32;31372;-86
2021/05/01 07:36:19;;;;;;;5.80;4.87;;;;;;;21.40;46.91;99327.00;4335380;32;34803;-85
2021/05/01 07:38:47;;;;;;;6.37;4.55;;;;;;;21.30;47.59;99320.81;4321115;33;32768;-89
2021/05/01 07:41:15;;;;;;;5.97;4.82;;;;;;;21.26;47.15;99319.41;4332224;32;34481;-88
2021/05/01 07:43:48;;;;;;;5.30;4.50;;;;;;;21.54;48.68;99326.53;4328118;32;34139;-87
2021/05/01 07:46:16;;;;;;;6.30;4.07;;;;;;;21.62;46.97;99315.87;4341063;32;34686;-88
2021/05/01 07:48:44;;;;;;;6.55;4.90;;;;;;;21.53;45.93;99321.31;4341963;32;33382;-87
2021/05/01 07:51:11;;;;;;;7.87;4.32;;;;;;;21.34;47.63;99314.19;4318730;32;36727;-87
2021/05/01 07:53:39;;;;;;;6.40;4.65;;;;;;;21.41;46.55;99326.00;4340931;32;33238;-88
2021/05/01 07:56:06;;;;;;;6.80;4.60;;;;;;;22.24;45.19;99321.47;4319395;32;35702;-87
2021/05/01 07:58:33;;;;;;;7.68;4.47;;;;;;;22.66;43.28;99315.47;4330592;32;33607;-88
2021/05/01 08:01:01;;;;;;;5.47;4.43;;;;;;;22.81;43.27;99318.44;4331432;32;33586;-88
2021/05/01 08:03:32;;;;;;;9.20;5.10;;;;;;;22.81;43.42;99318.44;4346622;32;33029;-88
2021/05/01 08:06:00;;;;;;;5.28;4.53;;;;;;;22.45;45.60;99319.31;4344867;32;34088;-88
2021/05/01 08:08:27;;;;;;;5.37;4.22;;;;;;;22.51;44.50;99322.41;4332010;32;34411;-88
2021/05/01 08:10:55;;;;;;;6.30;3.75;;;;;;;22.81;42.19;99323.81;4335113;32;34060;-88
2021/05/01 08:13:31;;;;;;;11.18;4.78;;;;;;;22.71;41.75;99330.13;4331094;32;32751;-87
2021/05/01 08:15:59;;;;;;;3.10;2.75;;;;;;;23.44;41.02;99326.25;4345342;32;34194;-88
2021/05/01 08:18:27;;;;;;;3.80;3.50;;;;;;;23.27;41.25;99324.50;4330861;32;34426;-88
2021/05/01 08:20:54;;;;;;;4.10;3.42;;;;;;;22.90;42.40;99328.28;4334866;33;33750;-88
2021/05/01 08:23:21;;;;;;;4.22;3.80;;;;;;;23.56;42.41;99335.75;4331409;32;33309;-87
2021/05/01 08:25:49;;;;;;;3.53;3.22;;;;;;;24.00;40.15;99322.13;4345270;32;33248;-88
2021/05/01 08:28:17;;;;;;;5.85;3.70;;;;;;;23.13;40.48;99324.09;4343269;32;34830;-88
2021/05/01 08:30:44;;;;;;;10.05;4.15;;;;;;;23.36;40.42;99323.50;4334583;32;33552;-88
2021/05/01 08:33:11;;;;;;;4.70;3.47;;;;;;;23.54;42.83;99329.66;4331622;32;33923;-88
2021/05/01 08:35:39;;;;;;;3.62;2.75;;;;;;;23.95;41.69;99330.72;4330914;32;33290;-88
2021/05/01 08:38:07;;;;;;;6.47;2.78;;;;;;;24.14;39.08;99329.59;4331367;32;34046;-88
2021/05/01 08:40:35;;;;;;;2.45;2.15;;;;;;;24.15;40.28;99320.47;4331628;32;32725;-88
2021/05/01 08:43:07;;;;;;;6.90;2.22;;;;;;;24.27;38.34;99321.84;4333923;32;34279;-88
2021/05/01 08:45:35;;;;;;;5.00;3.05;;;;;;;24.35;38.58;99325.56;4331302;32;31050;-89
2021/05/01 08:48:03;;;;;;;3.65;2.40;;;;;;;24.46;37.64;99330.69;4345212;32;33614;-88
2021/05/01 08:50:35;;;;;;;3.40;3.10;;;;;;;23.88;39.17;99326.12;4334465;32;33952;-88
2021/05/01 08:53:03;;;;;;;3.97;2.58;;;;;;;24.20;38.77;99325.38;4332186;32;32886;-88
2021/05/01 08:55:34;;;;;;;2.25;2.05;;;;;;;24.41;37.38;99324.94;4342354;32;33748;-89
2021/05/01 08:58:03;;;;;;;3.70;2.58;;;;;;;24.20;39.14;99337.00;4343202;32;33500;-89
2021/05/01 09:00:31;;;;;;;9.23;2.30;;;;;;;23.99;40.03;99329.38;4320861;33;35191;-89
2021/05/01 09:03:04;;;;;;;3.90;2.22;;;;;;;24.40;40.35;99323.22;4314238;32;35239;-88
2021/05/01 09:05:35;;;;;;;3.12;2.37;;;;;;;24.76;39.18;99324.59;4335228;32;34586;-89
2021/05/01 09:08:09;;;;;;;;;;;;;;;24.78;39.08;99319.91;4330904;32;34814;-88
2021/05/01 09:10:49;;;;;;;3.97;2.22;;;;;;;25.13;36.88;99314.31;4331473;33;34322;-89
2021/05/01 09:13:27;;;;;;;2.25;2.05;;;;;;;25.22;35.29;99319.50;4333025;32;33761;-88
2021/05/01 09:15:55;;;;;;;2.40;1.75;;;;;;;25.23;36.18;99320.34;4344602;32;33347;-89
2021/05/01 09:18:27;;;;;;;2.75;2.10;;;;;;;25.65;36.89;99311.94;4339955;32;34785;-88
2021/05/01 09:21:11;;;;;;;2.95;1.80;;;;;;;25.65;35.32;99303.00;4329457;32;33414;-88
2021/05/01 09:23:45;;;;;;;3.28;2.00;;;;;;;25.60;35.47;99302.66;4343599;32;32423;-89
2021/05/01 09:26:13;;;;;;;6.37;2.55;;;;;;;25.46;36.61;99305.09;4343055;32;35250;-89
2021/05/01 09:28:42;;;;;;;5.25;2.15;;;;;;;25.45;37.17;99313.38;4304951;33;35334;-88
2021/05/01 09:31:14;;;;;;;5.10;2.50;;;;;;;25.44;38.18;99322.47;4339175;32;33381;-88
2021/05/01 09:33:49;;;;;;;;;;;;;;;25.49;37.46;99309.28;4343418;32;33378;-88
2021/05/01 09:36:21;;;;;;;3.80;3.40;;;;;;;25.73;35.99;99309.19;4334187;32;35338;-88
2021/05/01 09:39:07;;;;;;;4.97;3.12;;;;;;;25.03;37.05;99303.66;4341287;32;33143;-88
2021/05/01 09:41:46;;;;;;;5.62;3.53;;;;;;;25.29;39.14;99295.34;4330323;32;34836;-88
2021/05/01 09:44:18;;;;;;;4.78;3.22;;;;;;;25.19;39.04;99298.22;4331370;32;33363;-88
2021/05/01 09:46:49;;;;;;;;;;;;;;;25.47;38.30;99295.09;4322276;32;34456;-89
2021/05/01 09:49:23;;;;;;;10.82;5.60;;;;;;;25.73;39.08;99294.81;4328024;32;33089;-89
2021/05/01 09:51:50;;;;;;;7.22;3.83;;;;;;;25.66;37.30;99291.16;4341911;32;32537;-88
2021/05/01 09:54:22;;;;;;;5.80;2.90;;;;;;;25.49;36.69;99291.22;4344818;32;31584;-88
2021/05/01 09:56:51;;;;;;;4.57;2.90;;;;;;;26.10;36.75;99285.19;4326819;33;33671;-88
2021/05/01 09:59:46;;;;;;;3.62;2.33;;;;;;;26.18;35.41;99277.84;4341862;32;33716;-88
2021/05/01 10:02:16;;;;;;;5.03;1.90;;;;;;;26.52;36.39;99272.03;4330648;32;33704;-88
2021/05/01 10:05:12;;;;;;;3.62;1.87;;;;;;;25.98;35.47;99271.22;4340671;32;35168;-88
2021/05/01 10:07:42;;;;;;;5.25;2.00;;;;;;;26.27;34.78;99270.53;4351984;32;33141;-88
2021/05/01 10:10:09;;;;;;;4.00;2.17;;;;;;;26.01;35.89;99266.28;4353890;32;34422;-88
2021/05/01 10:12:39;;;;;;;3.08;1.95;;;;;;;26.97;35.03;99253.16;4352723;32;34577;-88
2021/05/01 10:15:17;;;;;;;17.50;7.55;;;;;;;26.88;34.25;99248.88;4353337;32;33870;-88
2021/05/01 10:17:46;;;;;;;6.55;3.87;;;;;;;26.79;32.83;99248.09;4340139;32;35869;-88
2021/05/01 10:20:15;;;;;;;5.47;2.50;;;;;;;26.16;35.56;99242.03;4354162;32;33657;-88
2021/05/01 10:22:46;;;;;;;6.43;2.83;;;;;;;26.51;34.54;99235.16;4355114;32;33190;-88
2021/05/01 10:25:17;;;;;;;4.68;2.22;;;;;;;26.49;35.22;99231.81;4346614;32;33993;-88
2021/05/01 10:27:55;;;;;;;5.50;2.00;;;;;;;26.80;34.75;99223.53;4335046;32;33363;-88
2021/05/01 10:31:05;;;;;;;3.83;2.58;;;;;;;27.10;33.59;99231.69;4343730;32;33788;-88
2021/05/01 10:33:30;;;;;;;3.37;2.05;;;;;;;26.40;35.40;99226.63;4340568;32;32343;-88
2021/05/01 10:36:04;;;;;;;4.62;1.83;;;;;;;27.05;35.94;99223.25;4345964;32;32660;-88
2021/05/01 10:38:32;;;;;;;2.05;1.85;;;;;;;26.76;33.90;99224.09;4346216;32;34132;-88
2021/05/01 10:41:17;;;;;;;2.12;1.40;;;;;;;26.22;35.11;99232.34;4349349;32;33384;-88
2021/05/01 10:43:53;;;;;;;4.30;1.90;;;;;;;26.14;35.18;99232.38;4340451;32;33397;-88
2021/05/01 10:46:36;;;;;;;3.30;1.83;;;;;;;26.92;35.34;99225.75;4348608;32;32976;-88
2021/05/01 10:49:05;;;;;;;4.62;2.45;;;;;;;26.66;35.39;99227.06;4347657;32;32488;-88
2021/05/01 10:51:44;;;;;;;3.83;2.50;;;;;;;26.58;34.39;99219.00;4350284;32;35623;-88
2021/05/01 10:54:13;;;;;;;2.58;1.95;;;;;;;26.34;35.57;99211.09;4336285;33;34563;-88
2021/05/01 10:56:59;;;;;;;5.70;2.92;;;;;;;26.41;35.56;99204.75;4350294;32;34009;-88
2021/05/01 10:59:29;;;;;;;5.30;1.92;;;;;;;26.18;35.97;99203.94;4329370;32;33719;-87
2021/05/01 11:02:00;;;;;;;7.50;2.87;;;;;;;26.91;33.62;99197.00;4333655;33;34552;-87
2021/05/01 11:04:31;;;;;;;6.22;2.25;;;;;;;27.46;33.11;99201.09;4347225;32;33393;-88
2021/05/01 11:07:13;;;;;;;6.12;2.85;;;;;;;26.47;35.11;99206.75;4334350;32;34238;-88
2021/05/01 11:09:43;;;;;;;3.87;2.72;;;;;;;26.78;34.92;99209.34;4335311;32;34149;-88
2021/05/01 11:12:12;;;;;;;10.73;3.67;;;;;;;27.04;33.35;99197.19;4345089;32;32898;-87
2021/05/01 11:14:52;;;;;;;4.50;2.42;;;;;;;27.11;34.13;99200.00;4335251;32;33432;-87
2021/05/01 11:17:32;;;;;;;4.03;2.58;;;;;;;27.05;33.25;99198.88;4325607;32;32724;-87
2021/05/01 11:20:09;;;;;;;5.35;2.83;;;;;;;26.84;34.79;99196.09;4345373;32;35100;-87
2021/05/01 11:22:43;;;;;;;7.12;2.05;;;;;;;26.28;35.23;99196.41;4333008;32;33273;-87
2021/05/01 11:25:14;;;;;;;4.15;2.50;;;;;;;26.52;34.94;99187.25;4344995;32;33015;-87
2021/05/01 11:27:44;;;;;;;3.22;2.35;;;;;;;26.42;36.81;99190.19;4344106;32;34267;-87
2021/05/01 11:30:13;;;;;;;2.55;2.35;;;;;;;26.25;36.72;99189.53;4349752;32;33279;-88
2021/05/01 11:32:41;;;;;;;2.33;1.92;;;;;;;26.36;35.55;99181.97;4345121;32;33327;-86
2021/05/01 11:35:17;;;;;;;4.15;2.33;;;;;;;26.84;33.96;99185.25;4344385;32;32890;-88
2021/05/01 11:37:47;;;;;;;6.10;2.60;;;;;;;27.50;34.57;99180.72;4336276;32;33759;-88
2021/05/01 11:40:17;;;;;;;3.58;2.53;;;;;;;26.99;34.06;99188.78;4333723;32;34438;-88
2021/05/01 11:42:45;;;;;;;4.00;2.47;;;;;;;27.33;33.48;99179.25;4323413;32;34654;-87
2021/05/01 11:45:18;;;;;;;7.43;3.12;;;;;;;26.92;34.44;99190.56;4331903;32;33649;-87
2021/05/01 11:47:49;;;;;;;4.95;3.83;;;;;;;26.77;35.31;99177.84;4344826;32;33795;-88
2021/05/01 11:50:18;;;;;;;5.23;3.43;;;;;;;26.85;35.55;99178.78;4321871;33;34570;-88